createdAt,value
2023-03-11T00:00:29.847Z,14.70
2023-03-11T00:03:18.447Z,8.50
2023-03-11T00:05:46.478Z,8.80
2023-03-11T00:08:19.372Z,6.40
2023-03-11T00:10:48.062Z,6.60
2023-03-11T00:13:16.341Z,5.90
2023-03-11T00:15:47.830Z,8.00
2023-03-11T00:18:14.952Z,9.90
2023-03-11T00:20:44.592Z,8.60
2023-03-11T00:23:12.835Z,8.90
2023-03-11T00:25:40.130Z,11.90
2023-03-11T00:28:07.177Z,7.80
2023-03-11T00:30:34.556Z,5.80
2023-03-11T00:33:01.964Z,7.80
2023-03-11T00:35:33.335Z,5.60
2023-03-11T00:38:06.791Z,3.50
2023-03-11T00:40:35.652Z,5.50
2023-03-11T00:43:03.557Z,3.50
2023-03-11T00:45:31.026Z,4.10
2023-03-11T00:47:58.173Z,3.30
2023-03-11T00:50:28.687Z,6.10
2023-03-11T00:52:57.106Z,4.50
2023-03-11T00:55:28.592Z,4.10
2023-03-11T00:57:59.584Z,5.40
2023-03-11T01:00:31.234Z,5.40
2023-03-11T01:02:59.714Z,5.00
2023-03-11T01:05:29.968Z,4.40
2023-03-11T01:07:57.585Z,4.40
2023-03-11T01:10:25.275Z,3.40
2023-03-11T01:12:52.250Z,4.50
2023-03-11T01:15:29.114Z,6.60
2023-03-11T01:17:56.553Z,2.40
2023-03-11T01:20:23.613Z,5.70
2023-03-11T01:22:51.064Z,4.50
2023-03-11T01:25:20.361Z,2.10
2023-03-11T01:27:47.628Z,2.60
2023-03-11T01:30:18.437Z,2.10
2023-03-11T01:32:46.022Z,4.20
2023-03-11T01:35:15.731Z,2.30
2023-03-11T01:37:43.498Z,3.30
2023-03-11T01:40:32.661Z,2.00
2023-03-11T01:43:05.757Z,1.70
2023-03-11T01:45:51.634Z,1.90
2023-03-11T01:48:21.872Z,4.00
2023-03-11T01:50:50.451Z,2.00
2023-03-11T01:53:18.142Z,4.50
2023-03-11T01:55:47.409Z,4.30
2023-03-11T01:58:23.751Z,3.60
2023-03-11T02:00:51.035Z,3.10
2023-03-11T02:03:23.824Z,10.70
2023-03-11T02:05:53.585Z,3.00
2023-03-11T02:08:20.514Z,3.70
2023-03-11T02:10:51.906Z,4.30
2023-03-11T02:13:20.414Z,4.10
2023-03-11T02:15:47.556Z,2.60
2023-03-11T02:18:15.425Z,4.60
2023-03-11T02:21:03.069Z,4.70
2023-03-11T02:23:43.669Z,4.80
2023-03-11T02:26:23.497Z,9.70
2023-03-11T02:28:52.693Z,14.80
2023-03-11T02:31:20.461Z,22.40
2023-03-11T02:33:52.624Z,15.20
2023-03-11T02:36:38.417Z,14.10
2023-03-11T02:39:07.406Z,16.90
2023-03-11T02:41:38.678Z,11.80
2023-03-11T02:44:10.011Z,11.70
2023-03-11T02:46:40.826Z,11.30
2023-03-11T02:49:09.540Z,11.10
2023-03-11T02:51:36.585Z,22.70
2023-03-11T02:54:05.385Z,14.00
2023-03-11T02:56:32.932Z,16.40
2023-03-11T02:58:59.809Z,15.00
2023-03-11T03:01:28.573Z,12.20
2023-03-11T03:03:55.503Z,10.70
2023-03-11T03:06:22.445Z,11.80
2023-03-11T03:08:50.125Z,13.70
2023-03-11T03:11:17.003Z,13.30
2023-03-11T03:13:44.119Z,13.50
2023-03-11T03:16:12.173Z,18.20
2023-03-11T03:18:39.449Z,15.70
2023-03-11T03:21:08.335Z,22.90
2023-03-11T03:23:37.242Z,14.80
2023-03-11T03:26:05.433Z,18.40
2023-03-11T03:28:32.990Z,15.70
2023-03-11T03:31:05.141Z,11.60
2023-03-11T03:33:32.504Z,7.20
2023-03-11T03:36:00.007Z,9.10
2023-03-11T03:38:30.898Z,56.40
2023-03-11T03:40:57.877Z,47.10
2023-03-11T03:43:25.420Z,40.20
2023-03-11T03:46:03.867Z,45.10
2023-03-11T03:48:35.181Z,63.60
2023-03-11T03:51:06.560Z,37.50
2023-03-11T03:53:35.004Z,13.50
2023-03-11T03:56:07.176Z,7.90
2023-03-11T03:58:34.559Z,8.20
2023-03-11T04:01:03.874Z,8.40
2023-03-11T04:03:31.419Z,7.10
2023-03-11T04:06:07.717Z,8.30
2023-03-11T04:08:35.128Z,5.90
2023-03-11T04:11:03.088Z,7.80
2023-03-11T04:13:30.965Z,5.10
2023-03-11T04:15:58.722Z,5.20
2023-03-11T04:18:25.989Z,3.10
2023-03-11T04:20:53.442Z,1.20
2023-03-11T04:23:20.594Z,1.20
2023-03-11T04:25:47.648Z,2.40
2023-03-11T04:28:15.234Z,2.00
2023-03-11T04:30:44.109Z,2.10
2023-03-11T04:33:11.339Z,2.70
2023-03-11T04:35:39.051Z,0.90
2023-03-11T04:38:06.570Z,1.20
2023-03-11T04:40:33.746Z,1.30
2023-03-11T04:43:00.669Z,2.00
2023-03-11T04:45:27.923Z,2.20
2023-03-11T04:47:56.602Z,2.30
2023-03-11T04:50:23.658Z,2.30
2023-03-11T04:52:51.009Z,1.40
2023-03-11T04:55:18.678Z,4.10
2023-03-11T04:57:45.955Z,3.60
2023-03-11T05:00:15.139Z,4.90
2023-03-11T05:02:44.232Z,3.50
2023-03-11T05:05:11.790Z,3.90
2023-03-11T05:07:39.045Z,3.10
2023-03-11T05:10:06.912Z,2.60
2023-03-11T05:12:34.886Z,1.00
2023-03-11T05:15:03.081Z,1.20
2023-03-11T05:17:30.106Z,6.00
2023-03-11T05:19:57.522Z,6.70
2023-03-11T05:22:28.918Z,4.00
2023-03-11T05:24:56.166Z,7.00
2023-03-11T05:27:23.848Z,17.00
2023-03-11T05:29:53.560Z,14.30
2023-03-11T05:32:21.478Z,12.10
2023-03-11T05:34:49.199Z,22.40
2023-03-11T05:37:16.906Z,18.30
2023-03-11T05:39:44.115Z,10.80
2023-03-11T05:42:11.642Z,8.20
2023-03-11T05:44:39.144Z,11.20
2023-03-11T05:47:06.476Z,9.60
2023-03-11T05:49:34.295Z,14.20
2023-03-11T05:52:01.812Z,9.70
2023-03-11T05:54:29.475Z,9.60
2023-03-11T05:56:57.239Z,9.00
2023-03-11T05:59:24.698Z,4.80
2023-03-11T06:01:56.350Z,17.40
2023-03-11T06:04:24.559Z,17.90
2023-03-11T06:06:51.780Z,18.90
2023-03-11T06:09:19.869Z,21.40
2023-03-11T06:11:47.112Z,27.60
2023-03-11T06:14:15.302Z,21.10
2023-03-11T06:16:43.562Z,26.80
2023-03-11T06:19:11.023Z,19.60
2023-03-11T06:21:41.348Z,16.60
2023-03-11T06:24:08.783Z,16.00
2023-03-11T06:26:36.589Z,15.00
2023-03-11T06:29:04.036Z,16.70
2023-03-11T06:31:32.897Z,9.10
2023-03-11T06:34:05.917Z,9.00
2023-03-11T06:36:33.269Z,10.00
2023-03-11T06:39:00.315Z,9.20
2023-03-11T06:41:28.189Z,8.70
2023-03-11T06:43:59.328Z,11.80
2023-03-11T06:46:26.484Z,9.90
2023-03-11T06:48:54.157Z,12.10
2023-03-11T06:51:22.039Z,11.20
2023-03-11T06:53:51.941Z,10.30
2023-03-11T06:56:21.557Z,9.90
2023-03-11T06:58:53.331Z,9.80
2023-03-11T07:01:22.682Z,12.50
2023-03-11T07:03:51.079Z,11.90
2023-03-11T07:06:22.573Z,21.60
2023-03-11T07:08:52.578Z,7.50
2023-03-11T07:11:25.805Z,8.30
2023-03-11T07:13:55.647Z,8.20
2023-03-11T07:16:26.258Z,8.10
2023-03-11T07:18:58.571Z,10.10
2023-03-11T07:21:27.369Z,10.50
2023-03-11T07:23:56.875Z,10.90
2023-03-11T07:26:25.153Z,10.80
2023-03-11T07:28:55.075Z,7.50
2023-03-11T07:31:24.462Z,10.30
2023-03-11T07:33:51.668Z,8.90
2023-03-11T07:36:21.937Z,5.60
2023-03-11T07:38:53.972Z,10.10
2023-03-11T07:41:21.072Z,12.00
2023-03-11T07:43:48.017Z,7.70
2023-03-11T07:46:21.955Z,7.00
2023-03-11T07:48:49.999Z,10.60
2023-03-11T07:51:20.009Z,8.00
2023-03-11T07:53:48.027Z,6.50
2023-03-11T07:56:16.565Z,7.10
2023-03-11T07:58:45.838Z,6.00
2023-03-11T08:01:16.828Z,8.80
2023-03-11T08:03:45.886Z,5.80
2023-03-11T08:06:21.313Z,8.50
2023-03-11T08:08:49.054Z,7.00
2023-03-11T08:11:17.711Z,7.40
2023-03-11T08:13:46.564Z,8.20
2023-03-11T08:16:15.509Z,6.50
2023-03-11T08:18:43.415Z,7.60
2023-03-11T08:21:15.703Z,12.20
2023-03-11T08:23:43.498Z,7.60
2023-03-11T08:26:12.866Z,7.60
2023-03-11T08:28:40.056Z,8.60
2023-03-11T08:31:23.747Z,7.30
2023-03-11T08:33:52.797Z,6.10
2023-03-11T08:36:20.481Z,4.80
2023-03-11T08:38:47.535Z,7.60
2023-03-11T08:41:15.309Z,6.70
2023-03-11T08:43:43.862Z,8.60
2023-03-11T08:46:20.749Z,6.60
2023-03-11T08:48:47.822Z,6.10
2023-03-11T08:51:15.445Z,6.50
2023-03-11T08:53:42.245Z,4.30
2023-03-11T08:56:09.345Z,2.40
2023-03-11T08:58:36.589Z,4.30
2023-03-11T09:01:04.883Z,9.00
2023-03-11T09:03:34.896Z,10.70
2023-03-11T09:06:04.658Z,3.00
2023-03-11T09:08:31.765Z,2.90
2023-03-11T09:10:58.912Z,6.60
2023-03-11T09:13:26.180Z,3.90
2023-03-11T09:15:53.569Z,3.10
2023-03-11T09:18:20.697Z,2.70
2023-03-11T09:20:47.624Z,7.20
2023-03-11T09:23:17.173Z,11.20
2023-03-11T09:25:44.388Z,13.80
2023-03-11T09:28:11.233Z,11.80
2023-03-11T09:30:38.081Z,5.80
2023-03-11T09:33:05.125Z,9.60
2023-03-11T09:35:32.235Z,10.90
2023-03-11T09:37:59.319Z,9.80
2023-03-11T09:40:38.763Z,7.50
2023-03-11T09:43:23.530Z,3.40
2023-03-11T09:45:59.161Z,6.30
2023-03-11T09:48:41.795Z,6.20
2023-03-11T09:51:26.970Z,10.00
2023-03-11T09:54:04.563Z,8.60
2023-03-11T09:56:35.054Z,10.70
2023-03-11T09:59:07.381Z,10.60
2023-03-11T10:01:42.380Z,10.40
2023-03-11T10:04:29.120Z,13.70
2023-03-11T10:06:57.080Z,10.90
2023-03-11T10:09:47.383Z,18.60
2023-03-11T10:12:36.049Z,9.10
2023-03-11T10:15:22.945Z,12.30
2023-03-11T10:18:11.403Z,11.40
2023-03-11T10:20:47.048Z,8.90
2023-03-11T10:23:29.058Z,5.60
2023-03-11T10:26:04.822Z,5.70
2023-03-11T10:29:06.981Z,9.80
2023-03-11T10:31:43.342Z,14.00
2023-03-11T10:34:26.165Z,28.90
2023-03-11T10:37:06.432Z,37.10
2023-03-11T10:39:33.880Z,47.60
2023-03-11T10:42:04.134Z,525.60
2023-03-11T10:44:35.660Z,175.50
2023-03-11T10:47:03.059Z,233.90
2023-03-11T10:49:30.891Z,545.80
2023-03-11T10:51:58.379Z,455.60
2023-03-11T10:54:28.259Z,102.90
2023-03-11T10:57:01.053Z,153.00
2023-03-11T10:59:33.220Z,155.50
2023-03-11T11:02:21.467Z,174.70
2023-03-11T11:04:50.464Z,357.10
2023-03-11T11:07:31.451Z,123.60
2023-03-11T11:10:21.422Z,99.30
2023-03-11T11:13:13.259Z,27.10
2023-03-11T11:15:50.338Z,17.80
2023-03-11T11:18:28.197Z,24.80
2023-03-11T11:21:08.407Z,96.60
2023-03-11T11:23:41.734Z,34.00
2023-03-11T11:26:23.917Z,30.90
2023-03-11T11:29:23.103Z,23.10
2023-03-11T11:31:49.947Z,31.90
2023-03-11T11:34:34.311Z,14.70
2023-03-11T11:37:05.731Z,13.00
2023-03-11T11:39:50.847Z,13.20
2023-03-11T11:42:22.872Z,6.50
2023-03-11T11:44:57.003Z,11.70
2023-03-11T11:47:29.389Z,14.20
2023-03-11T11:50:00.847Z,25.20
2023-03-11T11:52:32.544Z,46.50
2023-03-11T11:55:28.029Z,77.90
2023-03-11T11:57:54.862Z,21.80
2023-03-11T12:00:29.350Z,66.70
2023-03-11T12:03:16.531Z,26.40
2023-03-11T12:06:02.262Z,9.00
2023-03-11T12:09:05.243Z,22.10
2023-03-11T12:11:43.538Z,10.70
2023-03-11T12:14:35.420Z,23.40
2023-03-11T12:17:04.648Z,7.90
2023-03-11T12:19:37.217Z,12.50
2023-03-11T12:22:39.790Z,9.50
2023-03-11T12:25:28.143Z,9.10
2023-03-11T12:28:16.482Z,8.30
2023-03-11T12:30:49.839Z,16.10
2023-03-11T12:33:40.511Z,15.50
2023-03-11T12:36:25.511Z,67.40
2023-03-11T12:38:53.731Z,49.10
2023-03-11T12:41:33.171Z,13.60
2023-03-11T12:44:23.370Z,7.80
2023-03-11T12:47:00.716Z,10.50
2023-03-11T12:49:33.645Z,12.70
2023-03-11T12:52:15.751Z,12.90
2023-03-11T12:55:17.712Z,7.40
2023-03-11T12:57:53.475Z,11.00
2023-03-11T13:00:49.403Z,8.70
2023-03-11T13:03:35.702Z,11.10
2023-03-11T13:06:21.392Z,25.60
2023-03-11T13:08:51.512Z,33.40
2023-03-11T13:11:33.666Z,18.70
2023-03-11T13:14:29.149Z,29.90
2023-03-11T13:17:17.409Z,46.20
2023-03-11T13:19:49.456Z,39.70
2023-03-11T13:22:58.129Z,32.20
2023-03-11T13:25:29.320Z,36.20
2023-03-11T13:28:27.201Z,35.70
2023-03-11T13:31:03.283Z,34.40
2023-03-11T13:33:40.333Z,50.90
2023-03-11T13:36:41.834Z,44.80
2023-03-11T13:39:54.521Z,40.10
2023-03-11T13:42:33.676Z,51.50
2023-03-11T13:45:00.818Z,21.50
2023-03-11T13:47:30.752Z,44.60
2023-03-11T13:50:06.878Z,14.80
2023-03-11T13:53:07.617Z,27.60
2023-03-11T13:55:41.333Z,35.80
2023-03-11T13:58:28.396Z,32.20
2023-03-11T14:01:00.332Z,31.00
2023-03-11T14:03:36.119Z,24.70
2023-03-11T14:06:13.378Z,31.20
2023-03-11T14:08:41.433Z,20.60
2023-03-11T14:11:09.770Z,16.20
2023-03-11T14:13:54.961Z,15.30
2023-03-11T14:16:35.449Z,20.00
2023-03-11T14:19:18.774Z,26.30
2023-03-11T14:21:49.448Z,25.90
2023-03-11T14:24:23.353Z,13.00
2023-03-11T14:26:55.600Z,10.30
2023-03-11T14:29:33.350Z,9.50
2023-03-11T14:32:00.511Z,11.80
2023-03-11T14:34:29.600Z,6.20
2023-03-11T14:36:59.355Z,6.70
2023-03-11T14:39:34.928Z,11.70
2023-03-11T14:42:26.861Z,13.70
2023-03-11T14:45:04.595Z,6.90
2023-03-11T14:47:39.982Z,9.60
2023-03-11T14:50:15.960Z,10.30
2023-03-11T14:52:55.295Z,8.70
2023-03-11T14:55:27.441Z,7.00
2023-03-11T14:58:17.942Z,9.70
2023-03-11T15:00:50.005Z,14.90
2023-03-11T15:03:25.581Z,19.90
2023-03-11T15:05:56.222Z,19.10
2023-03-11T15:08:28.065Z,14.40
2023-03-11T15:11:05.850Z,18.40
2023-03-11T15:13:34.335Z,14.30
2023-03-11T15:16:04.259Z,22.90
2023-03-11T15:18:41.543Z,16.80
2023-03-11T15:21:20.312Z,46.20
2023-03-11T15:23:53.178Z,23.20
2023-03-11T15:26:24.356Z,20.00
2023-03-11T15:29:16.361Z,26.40
2023-03-11T15:31:46.111Z,21.30
2023-03-11T15:34:15.964Z,57.10
2023-03-11T15:36:48.945Z,31.40
2023-03-11T15:39:30.755Z,22.00
2023-03-11T15:42:03.241Z,21.90
2023-03-11T15:44:40.855Z,28.10
2023-03-11T15:47:20.088Z,25.00
2023-03-11T15:49:48.238Z,33.10
2023-03-11T15:52:15.941Z,49.10
2023-03-11T15:54:47.426Z,21.20
2023-03-11T15:57:24.263Z,25.40
2023-03-11T15:59:54.554Z,15.10
2023-03-11T16:02:27.548Z,22.80
2023-03-11T16:04:55.343Z,11.70
2023-03-11T16:07:38.146Z,12.70
2023-03-11T16:12:33.759Z,27.80
2023-03-11T16:15:00.729Z,22.30
2023-03-11T16:17:31.844Z,20.20
2023-03-11T16:20:07.193Z,9.20
2023-03-11T16:22:36.516Z,16.20
2023-03-11T16:25:04.163Z,25.00
2023-03-11T16:27:31.009Z,28.30
2023-03-11T16:29:57.854Z,16.40
2023-03-11T16:32:24.629Z,25.10
2023-03-11T16:34:51.749Z,29.20
2023-03-11T16:37:21.327Z,22.10
2023-03-11T16:39:48.405Z,14.70
2023-03-11T16:42:23.420Z,13.70
2023-03-11T16:44:50.403Z,15.20
2023-03-11T16:47:17.749Z,19.20
2023-03-11T16:49:44.721Z,29.40
2023-03-11T16:52:11.635Z,28.20
2023-03-11T16:54:38.617Z,33.20
2023-03-11T16:57:05.752Z,20.50
2023-03-11T16:59:32.784Z,21.50
2023-03-11T17:01:59.826Z,15.30
2023-03-11T17:04:26.785Z,9.70
2023-03-11T17:06:54.469Z,12.10
2023-03-11T17:09:24.162Z,14.10
2023-03-11T17:11:52.960Z,10.80
2023-03-11T17:14:21.051Z,11.60
2023-03-11T17:16:47.973Z,54.00
2023-03-11T17:19:14.830Z,29.00
2023-03-11T17:21:41.970Z,31.50
2023-03-11T17:24:10.483Z,24.60
2023-03-11T17:26:37.704Z,18.40
2023-03-11T17:29:04.448Z,18.20
2023-03-11T17:31:31.452Z,13.40
2023-03-11T17:34:02.579Z,13.60
2023-03-11T17:36:29.512Z,10.20
2023-03-11T17:38:56.334Z,12.40
2023-03-11T17:41:23.210Z,10.30
2023-03-11T17:43:51.536Z,10.90
2023-03-11T17:46:20.103Z,12.10
2023-03-11T17:48:48.791Z,14.50
2023-03-11T17:51:25.126Z,12.00
2023-03-11T17:53:55.124Z,15.40
2023-03-11T17:56:22.377Z,18.90
2023-03-11T17:58:50.243Z,16.50
2023-03-11T18:01:20.932Z,14.40
2023-03-11T18:03:48.872Z,11.90
2023-03-11T18:06:17.956Z,10.50
2023-03-11T18:08:45.326Z,7.20
2023-03-11T18:11:16.415Z,10.20
2023-03-11T18:13:45.850Z,9.90
2023-03-11T18:16:21.965Z,10.80
2023-03-11T18:18:49.019Z,17.00
2023-03-11T18:21:21.945Z,18.90
2023-03-11T18:23:50.974Z,11.80
2023-03-11T18:26:18.803Z,15.90
2023-03-11T18:28:46.084Z,17.50
2023-03-11T18:31:19.165Z,30.00
2023-03-11T18:33:49.090Z,18.70
2023-03-11T18:36:22.041Z,16.00
2023-03-11T18:38:51.658Z,20.00
2023-03-11T18:41:18.503Z,36.20
2023-03-11T18:43:45.571Z,15.40
2023-03-11T18:46:15.888Z,13.50
2023-03-11T18:48:42.781Z,13.70
2023-03-11T18:51:10.592Z,15.80
2023-03-11T18:53:37.955Z,14.00
2023-03-11T18:56:08.124Z,18.20
2023-03-11T18:58:34.914Z,13.10
2023-03-11T19:01:06.234Z,11.80
2023-03-11T19:03:33.940Z,17.60
2023-03-11T19:06:00.887Z,12.70
2023-03-11T19:08:28.657Z,9.30
2023-03-11T19:10:55.805Z,9.30
2023-03-11T19:13:22.784Z,12.50
2023-03-11T19:15:50.214Z,9.20
2023-03-11T19:18:17.387Z,10.90
2023-03-11T19:20:44.202Z,7.70
2023-03-11T19:23:11.197Z,9.40
2023-03-11T19:25:39.033Z,11.60
2023-03-11T19:28:05.727Z,7.20
2023-03-11T19:30:32.532Z,7.70
2023-03-11T19:32:59.911Z,7.40
2023-03-11T19:35:26.736Z,12.20
2023-03-11T19:37:57.240Z,9.40
2023-03-11T19:40:29.310Z,8.60
2023-03-11T19:43:00.269Z,7.00
2023-03-11T19:45:31.601Z,5.00
2023-03-11T19:47:59.584Z,4.60
2023-03-11T19:50:26.612Z,2.60
2023-03-11T19:52:53.625Z,2.90
2023-03-11T19:55:20.434Z,4.30
2023-03-11T19:57:47.568Z,2.90
2023-03-11T20:00:14.987Z,1.90
2023-03-11T20:02:41.894Z,2.00
2023-03-11T20:05:09.559Z,2.80
2023-03-11T20:07:36.373Z,2.20
2023-03-11T20:10:03.975Z,2.50
2023-03-11T20:12:30.882Z,2.70
2023-03-11T20:14:57.966Z,4.20
2023-03-11T20:17:24.775Z,2.60
2023-03-11T20:19:51.722Z,3.30
2023-03-11T20:22:19.862Z,6.90
2023-03-11T20:24:47.253Z,5.40
2023-03-11T20:27:14.749Z,6.40
2023-03-11T20:29:41.558Z,5.70
2023-03-11T20:32:08.479Z,9.30
2023-03-11T20:34:36.991Z,43.80
2023-03-11T20:37:04.135Z,29.00
2023-03-11T20:39:30.990Z,17.50
2023-03-11T20:41:58.312Z,15.90
2023-03-11T20:44:25.620Z,14.50
2023-03-11T20:46:54.314Z,11.60
2023-03-11T20:49:21.788Z,17.00
2023-03-11T20:51:48.682Z,16.00
2023-03-11T20:54:16.461Z,20.80
2023-03-11T20:56:43.625Z,8.80
2023-03-11T20:59:13.616Z,5.80
2023-03-11T21:01:40.670Z,5.70
2023-03-11T21:04:07.623Z,6.80
2023-03-11T21:06:40.579Z,3.80
2023-03-11T21:09:12.159Z,2.20
2023-03-11T21:11:39.138Z,3.30
2023-03-11T21:14:06.771Z,2.10
2023-03-11T21:16:34.712Z,6.80
2023-03-11T21:19:04.933Z,7.60
2023-03-11T21:21:32.222Z,10.20
2023-03-11T21:23:59.615Z,6.30
2023-03-11T21:26:26.469Z,9.20
2023-03-11T21:28:54.192Z,3.30
2023-03-11T21:31:24.714Z,2.60
2023-03-11T21:33:54.646Z,8.60
2023-03-11T21:36:22.257Z,2.90
2023-03-11T21:38:50.274Z,2.20
2023-03-11T21:41:20.197Z,3.80
2023-03-11T21:43:47.806Z,4.70
2023-03-11T21:46:18.533Z,8.00
2023-03-11T21:48:47.022Z,4.60
2023-03-11T21:51:15.654Z,4.20
2023-03-11T21:53:43.104Z,8.20
2023-03-11T21:56:10.295Z,8.60
2023-03-11T21:58:37.336Z,8.40
2023-03-11T22:01:04.992Z,5.30
2023-03-11T22:03:35.198Z,6.90
2023-03-11T22:06:08.231Z,6.00
2023-03-11T22:08:35.338Z,8.10
2023-03-11T22:11:05.993Z,5.70
2023-03-11T22:13:33.230Z,4.10
2023-03-11T22:16:06.792Z,5.30
2023-03-11T22:18:34.077Z,7.30
2023-03-11T22:21:01.694Z,5.30
2023-03-11T22:23:29.030Z,5.40
2023-03-11T22:25:55.950Z,4.20
2023-03-11T22:28:23.388Z,6.90
2023-03-11T22:30:50.363Z,6.60
2023-03-11T22:33:17.914Z,3.50
2023-03-11T22:35:56.405Z,8.20
2023-03-11T22:38:23.432Z,3.80
2023-03-11T22:40:51.256Z,3.10
2023-03-11T22:43:18.219Z,3.60
2023-03-11T22:45:45.815Z,5.50
2023-03-11T22:48:12.835Z,3.10
2023-03-11T22:50:44.515Z,4.50
2023-03-11T22:53:12.591Z,5.90
2023-03-11T22:55:41.236Z,4.80
2023-03-11T22:58:08.490Z,6.10
2023-03-11T23:00:36.280Z,7.90
2023-03-11T23:03:03.812Z,7.10
2023-03-11T23:05:31.079Z,6.60
2023-03-11T23:07:57.907Z,7.20
2023-03-11T23:10:24.662Z,4.10
2023-03-11T23:12:51.330Z,4.20
2023-03-11T23:15:18.856Z,6.50
2023-03-11T23:17:45.715Z,5.50
2023-03-11T23:20:15.105Z,4.60
2023-03-11T23:22:43.119Z,4.80
2023-03-11T23:25:15.453Z,3.10
2023-03-11T23:27:44.653Z,3.70
2023-03-11T23:30:13.980Z,5.00
2023-03-11T23:32:40.969Z,5.40
2023-03-11T23:35:09.078Z,5.20
2023-03-11T23:37:35.919Z,5.10
2023-03-11T23:40:04.393Z,6.30
2023-03-11T23:42:35.088Z,5.40
2023-03-11T23:45:02.061Z,6.40
2023-03-11T23:47:28.818Z,4.80
2023-03-11T23:49:55.675Z,4.90
2023-03-11T23:52:22.824Z,5.30
2023-03-11T23:54:49.912Z,6.10
2023-03-11T23:57:16.925Z,5.80
2023-03-11T23:59:44.175Z,4.70
